ADDS METAR Data INFO
IDs: Format: Raw Decoded Include TAF

Data at: 2256 UTC 16 Jan 2018

KHFD 162253Z 00000KT 10SM OVC033 00/M04 A3044 RMK AO2 SLP306 T00001039
KHFD 162153Z 00000KT 10SM BKN036 OVC044 00/M04 A3044 RMK AO2 SLP306 T00001039
KHFD 162053Z 00000KT 10SM OVC037 01/M05 A3044 RMK AO2 SLP309 T00061050 58007
KHFD 161953Z 00000KT 10SM OVC032 A3045 RMK AO2 SLP313 $
KHFD 161853Z 00000KT 10SM OVC032 A3046 RMK AO2 SLP316 $
KHFD 161753Z 00000KT 10SM BKN036 OVC080 A3046 RMK AO2 SLP316 60000 58027 $
KHFD 161653Z 00000KT 10SM FEW042 OVC085 A3049 RMK AO2 SLP326 $
KHFD 161628Z 00000KT 10SM FEW019 SCT042 OVC090 A3051 RMK AO2 $
KHFD 161553Z 00000KT 10SM OVC017 A3053 RMK AO2 SLP340 $
KHFD 161527Z 00000KT 10SM OVC015 A3054 RMK AO2 $
KHFD 161501Z 00000KT 10SM OVC014 A3054 RMK AO2 $
KHFD 161453Z 12003KT 10SM OVC016 A3054 RMK AO2 SNB12E50 SLP343 P0000 60000 50010 $
KHFD 161353Z COR 19003KT 10SM BKN019 OVC024 M/M11 A3055 RMK AO2 SLP346 $
KHFD 161329Z COR 20003KT 10SM BKN021 OVC039 M/M12 A3055 RMK AO2 $
KHFD 161253Z COR 00000KT 10SM OVC039 M/M12 A3053 RMK AO2 SLP340 $
KHFD 161153Z COR 07003KT 10SM OVC040 M/M12 A3051 RMK AO2 SLP333 58003 $
KHFD 161053Z COR 04003KT 10SM OVC041 M/M12 A3052 RMK AO2 SLP336 $
KHFD 160953Z AUTO 31003KT 10SM OVC045 A3053 RMK AO2 SLP340 $
KHFD 160853Z AUTO 00000KT 10SM OVC035 A3052 RMK AO2 SLP336 52007 $
KHFD 160753Z AUTO 35005KT 10SM CLR A3051 RMK AO2 SLP333 $
KHFD 160653Z AUTO 36003KT 10SM CLR A3051 RMK AO2 SLP333 $
KHFD 160553Z AUTO 35003KT 10SM OVC034 A3050 RMK AO2 SLP330 57014 $
KHFD 160453Z 01006KT 10SM OVC034 A3051 RMK AO2 SLP333 $
KHFD 160353Z 36007KT 10SM FEW019 OVC035 A3053 RMK AO2 SLP340 $
KHFD 160253Z 02007KT 10SM OVC035 A3054 RMK AO2 SLP343 57017 $
KHFD 160215Z 01006KT 10SM SCT020 OVC035 A3056 RMK AO2 $
KHFD 160153Z 01007KT 10SM OVC020 A3057 RMK AO2 SLP353 $
KHFD 160053Z 02009KT 10SM BKN020 OVC036 A3056 RMK AO2 SLP350 $
KHFD 152353Z 36007KT 10SM OVC020 A3059 RMK AO2 SLP360 60000 55000 $
KHFD 152253Z 01007KT 10SM OVC022 A3058 RMK AO2 SLP357 $
KHFD 152153Z 36008KT 10SM OVC023 A3058 RMK AO2 SLP357 $
KHFD 152137Z 02008KT 10SM BKN023 OVC039 A3058 RMK AO2 $
KHFD 152119Z 01008KT 10SM SCT023 OVC039 A3058 RMK AO2 $
KHFD 152053Z 02009KT 10SM OVC021 A3059 RMK AO2 SLP360 60000 56010 $
KHFD 151953Z 01010KT 10SM OVC023 A3059 RMK AO2 SLP360 $
KHFD 151853Z 02009KT 10SM OVC023 A3061 RMK AO2 SNE1754 SLP367 P0000 $
KHFD 151753Z COR 36011KT 9SM OVC023 M/M13 A3062 RMK AO2 SLP370 P0000 60000 58047 $
KHFD 151653Z COR 36008KT 9SM -SN OVC029 M/M14 A3067 RMK AO2 SLP387 P0000 $
KHFD 151643Z COR 01011KT 9SM -SN OVC029 M/M14 A3068 RMK AO2 P0000 $
KHFD 151553Z COR 01008KT 9SM -SN OVC032 M/M14.4 A3072 RMK AO2 SLP404 P0000 $
KHFD 151453Z COR 36008KT 9SM -SN OVC033 M/-15.0 A3075 RMK AO2 RAB41E42 SLP418 P0000 60000 51007 $
KHFD 151353Z 01010KT 9SM -SN OVC032 M12/M17 A3076 RMK AO2 SNB29 SLP415 P0000 T11221172 $
KHFD 151253Z 01008KT 10SM OVC032 M12/M17 A3075 RMK AO2 SLP413 T11221172 $
KHFD 151153Z 02013KT 10SM OVC032 M12/M17 A3074 RMK AO2 SLP410 T11221172 50003 $